sensor_id;sensor_type;location;lat;lon;timestamp;pressure;altitude;pressure_sealevel;temperature;humidity
55347;BME280;41218;55.700;38.270;2023-01-27T00:01:16;100130.47;;;-2.05;71.61
55347;BME280;41218;55.700;38.270;2023-01-27T00:06:17;100131.00;;;-2.03;71.60
55347;BME280;41218;55.700;38.270;2023-01-27T00:11:17;100132.66;;;-2.02;71.35
55347;BME280;41218;55.700;38.270;2023-01-27T00:16:37;100123.19;;;-2.10;71.81
55347;BME280;41218;55.700;38.270;2023-01-27T00:21:37;100120.75;;;-2.11;71.42
55347;BME280;41218;55.700;38.270;2023-01-27T00:26:56;100127.25;;;-2.07;71.94
55347;BME280;41218;55.700;38.270;2023-01-27T00:31:57;100116.44;;;-2.12;71.54
55347;BME280;41218;55.700;38.270;2023-01-27T00:37:17;100119.69;;;-2.15;71.32
55347;BME280;41218;55.700;38.270;2023-01-27T00:42:18;100117.81;;;-2.15;71.85
55347;BME280;41218;55.700;38.270;2023-01-27T00:47:18;100102.63;;;-2.16;71.58
55347;BME280;41218;55.700;38.270;2023-01-27T00:52:19;100114.84;;;-2.18;71.80
55347;BME280;41218;55.700;38.270;2023-01-27T00:57:19;100123.75;;;-2.13;71.37
55347;BME280;41218;55.700;38.270;2023-01-27T01:02:20;100111.84;;;-2.17;71.43
55347;BME280;41218;55.700;38.270;2023-01-27T01:07:20;100112.94;;;-2.18;71.69
55347;BME280;41218;55.700;38.270;2023-01-27T01:12:21;100109.69;;;-2.20;71.57
55347;BME280;41218;55.700;38.270;2023-01-27T01:17:21;100098.84;;;-2.25;71.76
55347;BME280;41218;55.700;38.270;2023-01-27T01:22:22;100102.66;;;-2.26;71.72
55347;BME280;41218;55.700;38.270;2023-01-27T01:27:22;100094.84;;;-2.33;71.71
55347;BME280;41218;55.700;38.270;2023-01-27T01:32:23;100107.28;;;-2.32;71.33
55347;BME280;41218;55.700;38.270;2023-01-27T01:37:24;100105.94;;;-2.39;71.60
55347;BME280;41218;55.700;38.270;2023-01-27T01:42:24;100097.28;;;-2.42;71.68
55347;BME280;41218;55.700;38.270;2023-01-27T01:47:25;100093.50;;;-2.40;71.56
55347;BME280;41218;55.700;38.270;2023-01-27T01:52:25;100086.75;;;-2.48;71.54
55347;BME280;41218;55.700;38.270;2023-01-27T01:57:31;100101.94;;;-2.47;71.63
55347;BME280;41218;55.700;38.270;2023-01-27T02:02:38;100094.06;;;-2.49;71.58
55347;BME280;41218;55.700;38.270;2023-01-27T02:12:49;100082.72;;;-2.61;71.81
55347;BME280;41218;55.700;38.270;2023-01-27T02:17:50;100091.09;;;-2.52;71.78
55347;BME280;41218;55.700;38.270;2023-01-27T02:28:13;100088.94;;;-2.50;71.77
55347;BME280;41218;55.700;38.270;2023-01-27T02:33:14;100085.16;;;-2.49;72.14
55347;BME280;41218;55.700;38.270;2023-01-27T02:38:16;100076.75;;;-2.58;72.08
55347;BME280;41218;55.700;38.270;2023-01-27T02:43:18;100077.28;;;-2.56;72.06
55347;BME280;41218;55.700;38.270;2023-01-27T02:48:18;100087.84;;;-2.54;72.19
55347;BME280;41218;55.700;38.270;2023-01-27T02:53:19;100075.41;;;-2.60;72.10
55347;BME280;41218;55.700;38.270;2023-01-27T02:58:19;100069.22;;;-2.61;71.70
55347;BME280;41218;55.700;38.270;2023-01-27T03:03:20;100068.41;;;-2.67;72.27
55347;BME280;41218;55.700;38.270;2023-01-27T03:08:20;100080.03;;;-2.61;71.85
55347;BME280;41218;55.700;38.270;2023-01-27T03:13:22;100079.75;;;-2.65;72.11
55347;BME280;41218;55.700;38.270;2023-01-27T03:18:23;100081.13;;;-2.72;72.06
55347;BME280;41218;55.700;38.270;2023-01-27T03:23:24;100083.56;;;-2.71;72.12
55347;BME280;41218;55.700;38.270;2023-01-27T03:28:24;100083.84;;;-2.67;72.08
55347;BME280;41218;55.700;38.270;2023-01-27T03:33:25;100081.13;;;-2.72;71.63
55347;BME280;41218;55.700;38.270;2023-01-27T03:38:25;100083.56;;;-2.71;71.98
55347;BME280;41218;55.700;38.270;2023-01-27T03:43:44;100081.16;;;-2.77;71.82
55347;BME280;41218;55.700;38.270;2023-01-27T03:49:03;100082.75;;;-2.71;71.53
55347;BME280;41218;55.700;38.270;2023-01-27T03:54:04;100097.09;;;-2.71;71.83
55347;BME280;41218;55.700;38.270;2023-01-27T03:59:04;100094.38;;;-2.76;71.78
55347;BME280;41218;55.700;38.270;2023-01-27T04:04:05;100095.75;;;-2.78;71.76
55347;BME280;41218;55.700;38.270;2023-01-27T04:09:26;100097.09;;;-2.81;71.79
55347;BME280;41218;55.700;38.270;2023-01-27T04:14:35;100102.25;;;-2.79;71.77
55347;BME280;41218;55.700;38.270;2023-01-27T04:19:41;100091.41;;;-2.85;71.72
55347;BME280;41218;55.700;38.270;2023-01-27T04:24:42;100100.88;;;-2.77;71.38
55347;BME280;41218;55.700;38.270;2023-01-27T04:29:42;100100.34;;;-2.84;71.83
55347;BME280;41218;55.700;38.270;2023-01-27T04:34:43;100100.34;;;-2.84;71.87
55347;BME280;41218;55.700;38.270;2023-01-27T04:39:43;100100.34;;;-2.79;71.80
55347;BME280;41218;55.700;38.270;2023-01-27T04:44:45;100107.94;;;-2.81;71.64
55347;BME280;41218;55.700;38.270;2023-01-27T04:49:45;100117.66;;;-2.85;71.71
55347;BME280;41218;55.700;38.270;2023-01-27T04:54:46;100107.41;;;-2.93;71.66
55347;BME280;41218;55.700;38.270;2023-01-27T04:59:46;100105.50;;;-2.88;71.57
55347;BME280;41218;55.700;38.270;2023-01-27T05:04:49;100098.75;;;-2.95;71.85
55347;BME280;41218;55.700;38.270;2023-01-27T05:09:49;100114.97;;;-2.85;71.47
55347;BME280;41218;55.700;38.270;2023-01-27T05:14:50;100121.19;;;-2.85;71.71
55347;BME280;41218;55.700;38.270;2023-01-27T05:19:50;100111.16;;;-2.84;71.41
55347;BME280;41218;55.700;38.270;2023-01-27T05:24:51;100117.13;;;-2.82;71.54
55347;BME280;41218;55.700;38.270;2023-01-27T05:29:51;100118.47;;;-2.79;71.87
55347;BME280;41218;55.700;38.270;2023-01-27T05:34:52;100130.09;;;-2.84;71.65
55347;BME280;41218;55.700;38.270;2023-01-27T05:39:52;100136.88;;;-2.82;71.45
55347;BME280;41218;55.700;38.270;2023-01-27T05:44:53;100137.16;;;-2.83;71.70
55347;BME280;41218;55.700;38.270;2023-01-27T05:49:53;100146.09;;;-2.88;71.87
55347;BME280;41218;55.700;38.270;2023-01-27T05:54:54;100147.41;;;-2.80;72.08
55347;BME280;41218;55.700;38.270;2023-01-27T05:59:54;100145.25;;;-2.83;71.67
55347;BME280;41218;55.700;38.270;2023-01-27T06:04:55;100147.16;;;-2.84;71.44
55347;BME280;41218;55.700;38.270;2023-01-27T06:09:55;100146.34;;;-2.89;71.50
55347;BME280;41218;55.700;38.270;2023-01-27T06:14:56;100153.91;;;-2.86;71.70
55347;BME280;41218;55.700;38.270;2023-01-27T06:19:59;100147.16;;;-2.84;71.82
55347;BME280;41218;55.700;38.270;2023-01-27T06:24:59;100149.03;;;-2.84;71.99
55347;BME280;41218;55.700;38.270;2023-01-27T06:30:00;100160.41;;;-2.82;72.05
55347;BME280;41218;55.700;38.270;2023-01-27T06:35:01;100161.50;;;-2.83;71.89
55347;BME280;41218;55.700;38.270;2023-01-27T06:40:03;100144.72;;;-2.90;71.83
55347;BME280;41218;55.700;38.270;2023-01-27T06:45:04;100154.75;;;-2.86;71.89
55347;BME280;41218;55.700;38.270;2023-01-27T06:50:07;100161.22;;;-2.76;71.93
55347;BME280;41218;55.700;38.270;2023-01-27T06:55:08;100162.28;;;-2.72;71.57
55347;BME280;41218;55.700;38.270;2023-01-27T07:00:09;100163.91;;;-2.66;71.77
55347;BME280;41218;55.700;38.270;2023-01-27T07:05:10;100174.22;;;-2.63;71.52
55347;BME280;41218;55.700;38.270;2023-01-27T07:10:11;100163.63;;;-2.70;71.92
55347;BME280;41218;55.700;38.270;2023-01-27T07:15:12;100167.69;;;-2.62;71.42
55347;BME280;41218;55.700;38.270;2023-01-27T07:20:12;100174.75;;;-2.61;71.76
55347;BME280;41218;55.700;38.270;2023-01-27T07:25:13;100173.38;;;-2.58;71.81
55347;BME280;41218;55.700;38.270;2023-01-27T07:30:14;100177.16;;;-2.54;71.37
55347;BME280;41218;55.700;38.270;2023-01-27T07:35:15;100176.09;;;-2.53;71.28
55347;BME280;41218;55.700;38.270;2023-01-27T07:40:15;100181.50;;;-2.48;71.46
55347;BME280;41218;55.700;38.270;2023-01-27T07:45:17;100196.91;;;-2.44;71.53
55347;BME280;41218;55.700;38.270;2023-01-27T07:50:19;100192.59;;;-2.45;71.35
55347;BME280;41218;55.700;38.270;2023-01-27T07:55:20;100197.19;;;-2.40;71.57
55347;BME280;41218;55.700;38.270;2023-01-27T08:00:21;100189.59;;;-2.38;71.41
55347;BME280;41218;55.700;38.270;2023-01-27T08:05:22;100206.66;;;-2.32;71.31
55347;BME280;41218;55.700;38.270;2023-01-27T08:10:23;100203.38;;;-2.29;71.48
55347;BME280;41218;55.700;38.270;2023-01-27T08:15:23;100201.22;;;-2.27;71.12
55347;BME280;41218;55.700;38.270;2023-01-27T08:20:25;100196.34;;;-2.25;71.40
55347;BME280;41218;55.700;38.270;2023-01-27T08:25:26;100193.91;;;-2.22;71.31
55347;BME280;41218;55.700;38.270;2023-01-27T08:30:27;100198.22;;;-2.15;71.22
55347;BME280;41218;55.700;38.270;2023-01-27T08:35:27;100203.09;;;-2.07;71.27
55347;BME280;41218;55.700;38.270;2023-01-27T08:40:28;100205.78;;;-2.02;70.89
55347;BME280;41218;55.700;38.270;2023-01-27T08:45:28;100201.44;;;-2.03;70.90
55347;BME280;41218;55.700;38.270;2023-01-27T08:50:29;100205.50;;;-1.95;70.78
55347;BME280;41218;55.700;38.270;2023-01-27T08:55:31;100196.00;;;-1.93;70.86
55347;BME280;41218;55.700;38.270;2023-01-27T09:00:32;100202.22;;;-1.87;70.83
55347;BME280;41218;55.700;38.270;2023-01-27T09:05:34;100195.44;;;-1.85;70.67
55347;BME280;41218;55.700;38.270;2023-01-27T09:10:39;100207.88;;;-1.78;70.88
55347;BME280;41218;55.700;38.270;2023-01-27T09:15:39;100198.41;;;-1.76;70.70
55347;BME280;41218;55.700;38.270;2023-01-27T09:20:40;100202.97;;;-1.71;70.50
55347;BME280;41218;55.700;38.270;2023-01-27T09:25:41;100187.00;;;-1.73;70.43
55347;BME280;41218;55.700;38.270;2023-01-27T09:30:44;100190.75;;;-1.64;70.36
55347;BME280;41218;55.700;38.270;2023-01-27T09:35:47;100195.66;;;-1.66;70.45
55347;BME280;41218;55.700;38.270;2023-01-27T09:41:11;100200.75;;;-1.59;70.20
55347;BME280;41218;55.700;38.270;2023-01-27T09:56:42;100206.72;;;-1.57;70.32
55347;BME280;41218;55.700;38.270;2023-01-27T10:07:15;100193.44;;;-1.58;69.83
55347;BME280;41218;55.700;38.270;2023-01-27T10:12:26;100194.50;;;-1.49;69.88
55347;BME280;41218;55.700;38.270;2023-01-27T10:18:05;100196.63;;;-1.46;70.41
55347;BME280;41218;55.700;38.270;2023-01-27T10:28:30;100196.94;;;-1.53;70.12
55347;BME280;41218;55.700;38.270;2023-01-27T10:39:11;100206.41;;;-1.45;70.22
55347;BME280;41218;55.700;38.270;2023-01-27T10:49:57;100219.63;;;-1.38;70.10
55347;BME280;41218;55.700;38.270;2023-01-27T10:55:14;100221.81;;;-1.41;69.77
55347;BME280;41218;55.700;38.270;2023-01-27T11:00:24;100218.56;;;-1.43;70.19
55347;BME280;41218;55.700;38.270;2023-01-27T11:05:41;100208.84;;;-1.49;69.76
55347;BME280;41218;55.700;38.270;2023-01-27T11:10:46;100218.31;;;-1.41;70.07
55347;BME280;41218;55.700;38.270;2023-01-27T11:16:14;100206.66;;;-1.47;69.83
55347;BME280;41218;55.700;38.270;2023-01-27T11:21:18;100217.19;;;-1.40;69.92
55347;BME280;41218;55.700;38.270;2023-01-27T11:26:30;100213.38;;;-1.34;69.84
55347;BME280;41218;55.700;38.270;2023-01-27T11:31:38;100213.69;;;-1.41;70.02
55347;BME280;41218;55.700;38.270;2023-01-27T11:36:39;100197.22;;;-1.54;70.11
55347;BME280;41218;55.700;38.270;2023-01-27T11:41:47;100207.19;;;-1.45;70.42
55347;BME280;41218;55.700;38.270;2023-01-27T11:46:50;100212.84;;;-1.36;70.23
55347;BME280;41218;55.700;38.270;2023-01-27T11:51:58;100206.34;;;-1.30;70.29
55347;BME280;41218;55.700;38.270;2023-01-27T11:57:06;100208.19;;;-1.25;69.91
55347;BME280;41218;55.700;38.270;2023-01-27T12:07:59;100220.06;;;-1.16;69.79
55347;BME280;41218;55.700;38.270;2023-01-27T12:18:17;100224.44;;;-1.20;69.99
55347;BME280;41218;55.700;38.270;2023-01-27T12:23:34;100220.91;;;-1.21;70.18
55347;BME280;41218;55.700;38.270;2023-01-27T12:29:12;100232.56;;;-1.15;69.95
55347;BME280;41218;55.700;38.270;2023-01-27T12:34:31;100235.53;;;-1.16;69.91
55347;BME280;41218;55.700;38.270;2023-01-27T12:44:42;100247.50;;;-1.17;69.99
55347;BME280;41218;55.700;38.270;2023-01-27T12:49:44;100235.28;;;-1.20;69.80
55347;BME280;41218;55.700;38.270;2023-01-27T12:54:45;100240.75;;;-1.25;69.87
55347;BME280;41218;55.700;38.270;2023-01-27T12:59:49;100248.03;;;-1.21;69.93
55347;BME280;41218;55.700;38.270;2023-01-27T13:04:53;100253.72;;;-1.22;70.04
55347;BME280;41218;55.700;38.270;2023-01-27T13:10:02;100250.78;;;-1.26;70.09
55347;BME280;41218;55.700;38.270;2023-01-27T13:15:18;100254.31;;;-1.30;70.02
55347;BME280;41218;55.700;38.270;2023-01-27T13:30:48;100257.03;;;-1.25;70.14
55347;BME280;41218;55.700;38.270;2023-01-27T13:41:13;100265.44;;;-1.27;70.24
55347;BME280;41218;55.700;38.270;2023-01-27T13:46:20;100268.13;;;-1.27;70.13
55347;BME280;41218;55.700;38.270;2023-01-27T13:51:28;100263.56;;;-1.31;70.43
55347;BME280;41218;55.700;38.270;2023-01-27T14:01:48;100275.22;;;-1.31;70.38
55347;BME280;41218;55.700;38.270;2023-01-27T14:12:32;100273.88;;;-1.38;70.52
55347;BME280;41218;55.700;38.270;2023-01-27T14:39:19;100308.59;;;-1.35;70.47
55347;BME280;41218;55.700;38.270;2023-01-27T15:01:00;100325.41;;;-1.33;70.65
55347;BME280;41218;55.700;38.270;2023-01-27T15:11:43;100326.78;;;-1.41;70.84
55347;BME280;41218;55.700;38.270;2023-01-27T15:26:56;100338.69;;;-1.37;70.47
55347;BME280;41218;55.700;38.270;2023-01-27T15:37:21;100328.94;;;-1.43;70.86
55347;BME280;41218;55.700;38.270;2023-01-27T15:42:49;100345.19;;;-1.33;71.01
55347;BME280;41218;55.700;38.270;2023-01-27T15:47:59;100356.03;;;-1.33;71.05
55347;BME280;41218;55.700;38.270;2023-01-27T15:53:03;100348.19;;;-1.39;70.43
55347;BME280;41218;55.700;38.270;2023-01-27T16:08:24;100345.44;;;-1.34;70.89
55347;BME280;41218;55.700;38.270;2023-01-27T16:13:29;100343.56;;;-1.39;70.90
55347;BME280;41218;55.700;38.270;2023-01-27T16:18:41;100360.09;;;-1.30;70.82
55347;BME280;41218;55.700;38.270;2023-01-27T16:24:08;100370.94;;;-1.30;71.18
55347;BME280;41218;55.700;38.270;2023-01-27T16:29:44;100371.78;;;-1.30;70.92
55347;BME280;41218;55.700;38.270;2023-01-27T16:34:48;100369.06;;;-1.30;71.13
55347;BME280;41218;55.700;38.270;2023-01-27T16:40:03;100372.31;;;-1.28;71.27
55347;BME280;41218;55.700;38.270;2023-01-27T16:45:20;100363.34;;;-1.28;71.16
55347;BME280;41218;55.700;38.270;2023-01-27T16:50:36;100369.31;;;-1.31;70.94
55347;BME280;41218;55.700;38.270;2023-01-27T16:55:38;100370.94;;;-1.30;71.31
55347;BME280;41218;55.700;38.270;2023-01-27T17:00:39;100378.53;;;-1.27;71.01
55347;BME280;41218;55.700;38.270;2023-01-27T17:05:41;100377.16;;;-1.25;71.31
55347;BME280;41218;55.700;38.270;2023-01-27T17:21:33;100377.72;;;-1.28;71.47
55347;BME280;41218;55.700;38.270;2023-01-27T17:26:35;100378.28;;;-1.26;71.38
55347;BME280;41218;55.700;38.270;2023-01-27T17:31:36;100389.13;;;-1.26;71.17
55347;BME280;41218;55.700;38.270;2023-01-27T17:36:38;100387.47;;;-1.22;71.54
55347;BME280;41218;55.700;38.270;2023-01-27T17:41:58;100379.91;;;-1.30;71.50
55347;BME280;41218;55.700;38.270;2023-01-27T17:47:01;100381.25;;;-1.27;71.31
55347;BME280;41218;55.700;38.270;2023-01-27T17:52:07;100381.25;;;-1.27;71.29
55347;BME280;41218;55.700;38.270;2023-01-27T18:02:28;100393.72;;;-1.26;71.45
55347;BME280;41218;55.700;38.270;2023-01-27T18:07:30;100398.59;;;-1.28;71.64
55347;BME280;41218;55.700;38.270;2023-01-27T18:12:32;100403.22;;;-1.24;71.63
55347;BME280;41218;55.700;38.270;2023-01-27T18:17:33;100395.34;;;-1.25;71.75
55347;BME280;41218;55.700;38.270;2023-01-27T18:22:34;100408.91;;;-1.25;71.77
55347;BME280;41218;55.700;38.270;2023-01-27T18:27:35;100409.19;;;-1.22;71.39
55347;BME280;41218;55.700;38.270;2023-01-27T18:32:42;100411.91;;;-1.22;71.36
55347;BME280;41218;55.700;38.270;2023-01-27T18:37:54;100400.22;;;-1.27;71.84
55347;BME280;41218;55.700;38.270;2023-01-27T18:42:57;100410.78;;;-1.21;71.68
55347;BME280;41218;55.700;38.270;2023-01-27T18:47:58;100409.72;;;-1.25;71.80
55347;BME280;41218;55.700;38.270;2023-01-27T18:53:00;100418.66;;;-1.19;71.81
55347;BME280;41218;55.700;38.270;2023-01-27T18:58:01;100416.78;;;-1.24;71.62
55347;BME280;41218;55.700;38.270;2023-01-27T19:03:02;100431.41;;;-1.19;71.70
55347;BME280;41218;55.700;38.270;2023-01-27T19:08:04;100419.22;;;-1.27;71.75
55347;BME280;41218;55.700;38.270;2023-01-27T19:13:04;100438.72;;;-1.20;72.03
55347;BME280;41218;55.700;38.270;2023-01-27T19:18:23;100437.66;;;-1.19;71.94
55347;BME280;41218;55.700;38.270;2023-01-27T19:23:24;100438.44;;;-1.18;72.14
55347;BME280;41218;55.700;38.270;2023-01-27T19:28:36;100443.06;;;-1.19;71.75
55347;BME280;41218;55.700;38.270;2023-01-27T19:33:37;100444.16;;;-1.20;72.07
55347;BME280;41218;55.700;38.270;2023-01-27T19:38:38;100455.81;;;-1.14;72.27
55347;BME280;41218;55.700;38.270;2023-01-27T19:43:38;100449.03;;;-1.17;71.53
55347;BME280;41218;55.700;38.270;2023-01-27T19:48:41;100449.56;;;-1.15;71.78
55347;BME280;41218;55.700;38.270;2023-01-27T19:53:42;100440.63;;;-1.21;72.02
55347;BME280;41218;55.700;38.270;2023-01-27T19:58:47;100434.66;;;-1.17;71.67
55347;BME280;41218;55.700;38.270;2023-01-27T20:03:52;100437.91;;;-1.15;72.00
55347;BME280;41218;55.700;38.270;2023-01-27T20:08:56;100452.56;;;-1.16;72.06
55347;BME280;41218;55.700;38.270;2023-01-27T20:13:58;100453.66;;;-1.17;72.00
55347;BME280;41218;55.700;38.270;2023-01-27T20:18:59;100468.00;;;-1.12;72.24
55347;BME280;41218;55.700;38.270;2023-01-27T20:24:00;100459.88;;;-1.12;71.78
55347;BME280;41218;55.700;38.270;2023-01-27T20:29:01;100450.38;;;-1.14;71.68
55347;BME280;41218;55.700;38.270;2023-01-27T20:34:02;100458.00;;;-1.11;71.86
55347;BME280;41218;55.700;38.270;2023-01-27T20:39:02;100453.63;;;-1.12;72.01
55347;BME280;41218;55.700;38.270;2023-01-27T20:44:03;100450.91;;;-1.12;72.04
55347;BME280;41218;55.700;38.270;2023-01-27T20:49:03;100456.88;;;-1.10;72.17
55347;BME280;41218;55.700;38.270;2023-01-27T20:54:04;100448.47;;;-1.14;72.25
55347;BME280;41218;55.700;38.270;2023-01-27T20:59:05;100457.69;;;-1.10;72.25
55347;BME280;41218;55.700;38.270;2023-01-27T21:04:05;100454.97;;;-1.10;72.02
55347;BME280;41218;55.700;38.270;2023-01-27T21:09:06;100447.13;;;-1.11;71.87
55347;BME280;41218;55.700;38.270;2023-01-27T21:14:06;100458.00;;;-1.11;72.13
55347;BME280;41218;55.700;38.270;2023-01-27T21:19:07;100457.97;;;-1.16;72.52
55347;BME280;41218;55.700;38.270;2023-01-27T21:24:08;100456.34;;;-1.12;71.71
55347;BME280;41218;55.700;38.270;2023-01-27T21:29:10;100471.78;;;-1.08;72.17
55347;BME280;41218;55.700;38.270;2023-01-27T21:34:11;100465.81;;;-1.10;72.28
55347;BME280;41218;55.700;38.270;2023-01-27T21:39:11;100462.31;;;-1.10;72.19
55347;BME280;41218;55.700;38.270;2023-01-27T21:44:18;100457.44;;;-1.13;72.26
55347;BME280;41218;55.700;38.270;2023-01-27T21:49:39;100465.56;;;-1.08;72.54
55347;BME280;41218;55.700;38.270;2023-01-27T21:55:03;100466.09;;;-1.06;72.11
55347;BME280;41218;55.700;38.270;2023-01-27T22:00:05;100477.75;;;-1.06;72.34
55347;BME280;41218;55.700;38.270;2023-01-27T22:05:08;100471.00;;;-1.08;72.52
55347;BME280;41218;55.700;38.270;2023-01-27T22:10:13;100475.03;;;-1.06;72.12
55347;BME280;41218;55.700;38.270;2023-01-27T22:15:16;100473.44;;;-1.07;72.46
55347;BME280;41218;55.700;38.270;2023-01-27T22:20:18;100472.63;;;-1.07;72.29
55347;BME280;41218;55.700;38.270;2023-01-27T22:25:19;100463.66;;;-1.08;72.50
55347;BME280;41218;55.700;38.270;2023-01-27T22:30:20;100479.66;;;-1.06;72.40
55347;BME280;41218;55.700;38.270;2023-01-27T22:35:20;100478.28;;;-1.04;72.33
55347;BME280;41218;55.700;38.270;2023-01-27T22:40:21;100482.38;;;-1.01;72.42
55347;BME280;41218;55.700;38.270;2023-01-27T22:45:22;100482.91;;;-1.04;72.40
55347;BME280;41218;55.700;38.270;2023-01-27T22:50:23;100484.81;;;-1.05;72.53
55347;BME280;41218;55.700;38.270;2023-01-27T22:55:24;100487.28;;;-1.03;72.39
55347;BME280;41218;55.700;38.270;2023-01-27T23:00:24;100498.66;;;-1.01;72.31
55347;BME280;41218;55.700;38.270;2023-01-27T23:05:25;100481.03;;;-1.09;72.13
55347;BME280;41218;55.700;38.270;2023-01-27T23:10:25;100494.03;;;-1.06;72.71
55347;BME280;41218;55.700;38.270;2023-01-27T23:15:26;100491.88;;;-1.04;72.60
55347;BME280;41218;55.700;38.270;2023-01-27T23:20:27;100497.03;;;-1.07;72.51
55347;BME280;41218;55.700;38.270;2023-01-27T23:25:27;100496.47;;;-1.04;72.52
55347;BME280;41218;55.700;38.270;2023-01-27T23:30:28;100512.47;;;-0.97;72.38
55347;BME280;41218;55.700;38.270;2023-01-27T23:35:28;100515.47;;;-0.99;72.44
55347;BME280;41218;55.700;38.270;2023-01-27T23:40:30;100505.16;;;-1.02;72.80
55347;BME280;41218;55.700;38.270;2023-01-27T23:45:31;100508.41;;;-1.00;73.17
55347;BME280;41218;55.700;38.270;2023-01-27T23:50:32;100514.91;;;-0.96;72.76
55347;BME280;41218;55.700;38.270;2023-01-27T23:55:32;100515.19;;;-0.97;72.51
